Time;durP1;ratioP1;P1;durP2;ratioP2;P2;SDS_P1;SDS_P2;PMS_P1;PMS_P2;Temp;Humidity;BMP_temperature;BMP_pressure;BME280_temperature;BME280_humidity;BME280_pressure;Samples;Min_cycle;Max_cycle;Signal;HPM_P1;HPM_P2
2022/12/14 00:01:30;;;;;;;15.35;8.50;;;-1.40;99.90;;;;;;5053476;28;20695;-64
2022/12/14 00:03:58;;;;;;;9.38;7.45;;;-1.40;99.90;;;;;;5053205;28;20203;-64
2022/12/14 00:06:28;;;;;;;10.63;6.47;;;-1.40;99.90;;;;;;5054492;28;20204;-65
2022/12/14 00:08:57;;;;;;;10.70;7.63;;;-1.40;99.90;;;;;;5054774;28;20201;-65
2022/12/14 00:11:27;;;;;;;11.50;7.90;;;-1.40;99.90;;;;;;5068544;28;20226;-64
2022/12/14 00:13:58;;;;;;;13.32;7.97;;;-1.40;99.90;;;;;;5055194;28;20655;-64
2022/12/14 00:16:28;;;;;;;10.43;7.03;;;-1.40;99.90;;;;;;5056369;28;20670;-64
2022/12/14 00:18:59;;;;;;;10.05;7.28;;;-1.40;99.90;;;;;;5068602;28;20209;-65
2022/12/14 00:21:27;;;;;;;13.80;8.20;;;-1.40;99.90;;;;;;5071506;28;20212;-65
2022/12/14 00:23:57;;;;;;;8.95;7.32;;;-1.30;99.90;;;;;;5058424;28;20210;-63
2022/12/14 00:26:28;;;;;;;18.63;7.32;;;-1.40;99.90;;;;;;5065218;28;20659;-64
2022/12/14 00:28:58;;;;;;;16.50;8.77;;;-1.30;99.90;;;;;;5059488;28;20240;-64
2022/12/14 00:31:27;;;;;;;9.45;6.80;;;-1.40;99.90;;;;;;5060234;28;20200;-64
2022/12/14 00:33:55;;;;;;;9.05;7.53;;;-1.30;99.90;;;;;;5077118;28;20210;-64
2022/12/14 00:36:23;;;;;;;11.38;7.60;;;-1.40;99.90;;;;;;5065352;28;20759;-64
2022/12/14 00:38:51;;;;;;;9.50;7.03;;;-1.40;99.90;;;;;;5069254;28;20193;-63
2022/12/14 00:41:19;;;;;;;13.43;7.90;;;-1.30;99.90;;;;;;5054778;28;20203;-63
2022/12/14 00:43:48;;;;;;;8.88;7.28;;;-1.30;99.90;;;;;;5065103;28;20576;-63
2022/12/14 00:46:16;;;;;;;11.20;7.55;;;-1.30;99.90;;;;;;5073173;28;20572;-63
2022/12/14 00:48:44;;;;;;;11.25;7.53;;;-1.30;99.90;;;;;;5073770;28;20208;-64
2022/12/14 00:51:13;;;;;;;13.73;10.15;;;-1.30;99.90;;;;;;5062514;28;20209;-63
2022/12/14 00:53:41;;;;;;;12.05;8.00;;;-1.30;99.90;;;;;;5054716;28;20211;-63
2022/12/14 00:56:10;;;;;;;11.63;8.38;;;-1.20;99.90;;;;;;5064566;28;20253;-64
2022/12/14 00:58:38;;;;;;;10.48;7.05;;;-1.20;99.90;;;;;;5060102;28;20663;-64
2022/12/14 01:01:12;;;;;;;11.55;7.63;;;-1.20;99.90;;;;;;5057280;28;20204;-62
2022/12/14 01:03:40;;;;;;;11.85;7.47;;;-1.20;99.90;;;;;;5056187;28;20208;-62
2022/12/14 01:06:13;;;;;;;13.73;8.35;;;-1.20;99.90;;;;;;5055976;28;20208;-62
2022/12/14 01:08:41;;;;;;;10.70;7.50;;;-1.10;99.90;;;;;;5052358;28;20225;-62
2022/12/14 01:11:10;;;;;;;9.52;7.38;;;-1.10;99.90;;;;;;5052710;28;20201;-64
2022/12/14 01:13:39;;;;;;;10.32;7.65;;;-1.10;99.90;;;;;;5053079;28;20196;-63
2022/12/14 01:16:11;;;;;;;10.07;7.40;;;-1.10;99.90;;;;;;5065379;28;20671;-62
2022/12/14 01:18:40;;;;;;;10.90;7.50;;;-1.10;99.90;;;;;;5053032;28;20267;-62
2022/12/14 01:21:14;;;;;;;13.20;9.43;;;-1.10;99.90;;;;;;5052719;28;20216;-62
2022/12/14 01:23:43;;;;;;;11.15;7.57;;;-1.10;99.90;;;;;;5052650;28;20239;-61
2022/12/14 01:26:13;;;;;;;9.05;7.55;;;-1.00;99.90;;;;;;5052863;28;20547;-62
2022/12/14 01:28:41;;;;;;;14.98;8.13;;;-1.00;99.90;;;;;;5065237;28;20207;-62
2022/12/14 01:31:14;;;;;;;9.15;7.47;;;-1.00;99.90;;;;;;5064998;28;20223;-62
2022/12/14 01:33:42;;;;;;;12.93;7.40;;;-1.00;99.90;;;;;;5053132;28;20189;-62
2022/12/14 01:36:12;;;;;;;9.20;7.70;;;-1.00;99.90;;;;;;5052907;28;20208;-62
2022/12/14 01:38:40;;;;;;;16.92;7.60;;;-1.00;99.90;;;;;;5052876;28;20574;-63
2022/12/14 01:41:16;;;;;;;11.77;6.85;;;-1.00;99.90;;;;;;5052769;28;20204;-62
2022/12/14 01:43:49;;;;;;;14.10;7.65;;;-1.00;99.90;;;;;;5055132;28;20203;-63
2022/12/14 01:46:25;;;;;;;14.35;9.18;;;-1.00;99.90;;;;;;5072389;28;20192;-63
2022/12/14 01:48:57;;;;;;;14.75;8.40;;;-1.00;99.90;;;;;;5056732;28;20609;-63
2022/12/14 01:51:26;;;;;;;9.35;7.05;;;-1.00;99.90;;;;;;5068650;28;20196;-63
2022/12/14 01:53:56;;;;;;;10.68;7.40;;;-1.00;99.90;;;;;;5067058;28;20223;-63
2022/12/14 01:56:24;;;;;;;10.15;6.80;;;-1.00;99.90;;;;;;5052509;28;20208;-62
2022/12/14 01:58:53;;;;;;;8.85;7.25;;;-1.00;99.90;;;;;;5052216;28;20227;-62
2022/12/14 02:01:22;;;;;;;14.15;8.52;;;-1.00;99.90;;;;;;5068221;28;20199;-62
2022/12/14 02:03:53;;;;;;;7.22;6.18;;;-0.90;99.90;;;;;;5052362;28;20309;-62
2022/12/14 02:06:26;;;;;;;10.60;7.50;;;-0.90;99.90;;;;;;5062451;28;20203;-62
2022/12/14 02:08:55;;;;;;;15.50;9.27;;;-0.90;99.90;;;;;;5052575;28;20195;-63
2022/12/14 02:11:31;;;;;;;11.52;7.40;;;-0.90;99.90;;;;;;5066208;28;20209;-62
2022/12/14 02:13:59;;;;;;;14.13;8.00;;;-0.90;99.90;;;;;;5061694;28;20193;-62
2022/12/14 02:16:28;;;;;;;12.15;6.82;;;-0.90;99.90;;;;;;5052109;28;20689;-62
2022/12/14 02:18:56;;;;;;;14.40;7.53;;;-0.90;99.90;;;;;;5070932;28;20202;-63
2022/12/14 02:21:36;;;;;;;10.38;6.93;;;-0.90;99.90;;;;;;5063265;28;20533;-62
2022/12/14 02:24:42;;;;;;;13.80;6.82;;;-0.90;99.90;;;;;;5059406;28;20215;-62
2022/12/14 02:27:17;;;;;;;11.07;8.57;;;-0.80;99.90;;;;;;5052238;28;20204;-62
2022/12/14 02:30:05;;;;;;;12.55;8.32;;;-0.80;99.90;;;;;;5055974;28;20196;-62
2022/12/14 02:32:57;;;;;;;12.98;7.90;;;-0.80;99.90;;;;;;5056400;28;20185;-62
2022/12/14 02:35:37;;;;;;;10.25;7.00;;;-0.80;99.90;;;;;;5071747;28;20677;-62
2022/12/14 02:38:27;;;;;;;14.00;8.45;;;-0.80;99.90;;;;;;5057024;28;20571;-62
2022/12/14 02:41:06;;;;;;;11.90;7.93;;;-0.80;99.90;;;;;;5074146;28;20198;-64
2022/12/14 02:43:44;;;;;;;10.90;7.47;;;-0.80;99.90;;;;;;5073840;28;20253;-62
2022/12/14 02:46:20;;;;;;;9.57;7.82;;;-0.70;99.90;;;;;;5057765;28;20192;-62
2022/12/14 02:48:53;;;;;;;12.35;8.25;;;-0.80;99.90;;;;;;5074509;28;20191;-62
2022/12/14 02:51:27;;;;;;;13.20;7.93;;;-0.80;99.90;;;;;;5058188;28;20194;-62
2022/12/14 02:54:02;;;;;;;10.02;7.05;;;-0.70;99.90;;;;;;5058770;28;20256;-61
2022/12/14 02:56:35;;;;;;;11.68;7.00;;;-0.80;99.90;;;;;;5060123;28;20200;-63
2022/12/14 02:59:07;;;;;;;12.07;7.50;;;-0.80;99.90;;;;;;5059314;28;20219;-62
2022/12/14 03:01:38;;;;;;;13.75;7.78;;;-0.70;99.90;;;;;;5066267;28;20643;-62
2022/12/14 03:04:07;;;;;;;14.00;8.35;;;-0.80;99.90;;;;;;5058961;28;20208;-62
2022/12/14 03:06:35;;;;;;;11.60;7.55;;;-0.80;99.90;;;;;;5072205;28;20203;-62
2022/12/14 03:09:05;;;;;;;13.18;8.13;;;-0.80;99.90;;;;;;5074246;28;20202;-62
2022/12/14 03:11:39;;;;;;;14.27;8.80;;;-0.80;99.90;;;;;;5057116;28;20188;-63
2022/12/14 03:14:13;;;;;;;10.90;8.00;;;-0.80;99.90;;;;;;5066741;28;20233;-62
2022/12/14 03:16:46;;;;;;;13.32;8.88;;;-0.70;99.90;;;;;;5055550;28;20189;-62
2022/12/14 03:19:20;;;;;;;11.63;8.20;;;-0.80;99.90;;;;;;5072547;28;20196;-62
2022/12/14 03:21:51;;;;;;;13.93;8.88;;;-0.70;99.90;;;;;;5075303;28;20229;-62
2022/12/14 03:24:23;;;;;;;11.63;8.43;;;-0.70;99.90;;;;;;5075055;28;20261;-62
2022/12/14 03:26:56;;;;;;;10.63;7.88;;;-0.70;99.90;;;;;;5075243;28;20188;-62
2022/12/14 03:29:27;;;;;;;13.65;8.02;;;-0.70;99.90;;;;;;5060808;28;20200;-62
2022/12/14 03:32:00;;;;;;;12.43;7.70;;;-0.70;99.90;;;;;;5055444;28;20560;-63
2022/12/14 03:34:31;;;;;;;10.50;7.97;;;-0.70;99.90;;;;;;5055471;28;20185;-61
2022/12/14 03:37:04;;;;;;;14.00;8.60;;;-0.70;99.90;;;;;;5055498;28;20571;-62
2022/12/14 03:39:35;;;;;;;17.17;8.65;;;-0.70;99.90;;;;;;5054773;28;20549;-62
2022/12/14 03:42:11;;;;;;;9.10;7.10;;;-0.70;99.90;;;;;;5054595;28;20185;-62
2022/12/14 03:44:48;;;;;;;13.95;8.93;;;-0.70;99.90;;;;;;5056282;28;20201;-62
2022/12/14 03:47:29;;;;;;;10.18;7.68;;;-0.60;99.90;;;;;;5062661;28;20203;-62
2022/12/14 03:50:01;;;;;;;11.73;8.25;;;-0.70;99.90;;;;;;5070607;28;20218;-62
2022/12/14 03:52:35;;;;;;;13.07;8.60;;;-0.80;99.90;;;;;;5057311;28;20417;-63
2022/12/14 03:55:12;;;;;;;14.55;9.00;;;-0.80;99.90;;;;;;5066385;28;20594;-62
2022/12/14 03:57:50;;;;;;;10.25;7.22;;;-0.80;99.90;;;;;;5060102;28;20651;-62
2022/12/14 04:00:21;;;;;;;16.08;7.70;;;-0.80;99.90;;;;;;5054330;28;20238;-62
2022/12/14 04:03:00;;;;;;;12.07;8.43;;;-0.80;99.90;;;;;;5053738;28;20204;-62
2022/12/14 04:05:37;;;;;;;10.85;8.32;;;-0.80;99.90;;;;;;5054811;28;20608;-62
2022/12/14 04:08:12;;;;;;;14.05;9.25;;;-0.80;99.90;;;;;;5058260;28;20703;-61
2022/12/14 04:19:20;;;;;;;15.65;8.90;;;-0.70;99.90;;;;;;5074168;28;20192;-62
2022/12/14 04:21:53;;;;;;;12.35;8.00;;;-0.70;99.90;;;;;;5074564;28;20283;-61
2022/12/14 04:27:16;;;;;;;14.05;8.88;;;-0.70;99.90;;;;;;5053736;28;20270;-61
2022/12/14 04:29:57;;;;;;;14.07;8.95;;;-0.70;99.90;;;;;;5053563;28;20575;-61
2022/12/14 04:32:30;;;;;;;11.15;8.85;;;-0.70;99.90;;;;;;5058147;28;20196;-61
2022/12/14 04:35:15;;;;;;;12.23;8.60;;;-0.70;99.90;;;;;;5078043;28;20274;-61
2022/12/14 04:37:46;;;;;;;10.82;8.35;;;-0.70;99.90;;;;;;5065368;28;20192;-61
2022/12/14 04:40:19;;;;;;;11.00;8.38;;;-0.70;99.90;;;;;;5082086;28;20220;-60
2022/12/14 04:42:50;;;;;;;12.13;7.88;;;-0.70;99.90;;;;;;5067639;28;20624;-61
2022/12/14 04:45:23;;;;;;;11.25;8.30;;;-0.70;99.90;;;;;;5067929;28;20292;-61
2022/12/14 04:48:00;;;;;;;18.10;9.13;;;-0.70;99.90;;;;;;5068127;28;20231;-61
2022/12/14 04:50:34;;;;;;;13.35;8.77;;;-0.80;99.90;;;;;;5065816;28;20253;-61
2022/12/14 04:53:09;;;;;;;13.85;8.38;;;-0.70;99.90;;;;;;5064586;28;20267;-61
2022/12/14 04:55:40;;;;;;;10.40;8.15;;;-0.70;99.90;;;;;;5082236;28;20247;-61
2022/12/14 04:58:13;;;;;;;12.35;7.88;;;-0.70;99.90;;;;;;5069164;28;20622;-61
2022/12/14 05:00:56;;;;;;;12.55;9.50;;;-0.70;99.90;;;;;;5066466;28;20284;-59
2022/12/14 05:03:28;;;;;;;12.85;8.70;;;-0.70;99.90;;;;;;5077205;28;20631;-61
2022/12/14 05:06:05;;;;;;;16.13;8.52;;;-0.70;99.90;;;;;;5085066;28;20249;-62
2022/12/14 05:08:49;;;;;;;15.07;9.52;;;-0.70;99.90;;;;;;5083218;28;20240;-62
2022/12/14 05:11:22;;;;;;;13.35;9.50;;;-0.70;99.90;;;;;;5085506;28;20267;-62
2022/12/14 05:13:50;;;;;;;12.48;8.40;;;-0.70;99.90;;;;;;5083509;28;20286;-63
2022/12/14 05:16:20;;;;;;;13.13;10.00;;;-0.70;99.90;;;;;;5066939;28;20354;-63
2022/12/14 05:18:48;;;;;;;12.07;8.52;;;-0.70;99.90;;;;;;5063075;28;20265;-63
2022/12/14 05:24:01;;;;;;;15.00;8.85;;;-0.70;99.90;;;;;;5065365;28;20284;-63
2022/12/14 05:26:30;;;;;;;15.05;9.48;;;-0.70;99.90;;;;;;5066458;28;20243;-63
2022/12/14 05:28:58;;;;;;;15.60;9.10;;;-0.70;99.90;;;;;;5065517;28;20698;-63
2022/12/14 05:31:26;;;;;;;17.13;10.07;;;-0.70;99.90;;;;;;5083807;28;20300;-62
2022/12/14 05:33:54;;;;;;;15.85;11.00;;;-0.70;99.90;;;;;;5082271;28;20263;-63
2022/12/14 05:36:23;;;;;;;16.27;9.98;;;-0.70;99.90;;;;;;5081625;28;20260;-63
2022/12/14 05:38:51;;;;;;;22.20;9.18;;;-0.60;99.90;;;;;;5080345;28;20291;-61
2022/12/14 05:41:19;;;;;;;18.52;10.77;;;-0.60;99.90;;;;;;5079908;28;20287;-62
2022/12/14 05:43:47;;;;;;;24.58;12.10;;;-0.60;99.90;;;;;;5080958;28;20263;-61
2022/12/14 05:46:15;;;;;;;18.20;10.07;;;-0.60;99.90;;;;;;5064952;28;20275;-61
2022/12/14 05:48:43;;;;;;;16.23;10.73;;;-0.60;99.90;;;;;;5066569;28;20251;-61
2022/12/14 05:51:13;;;;;;;18.02;11.50;;;-0.60;99.90;;;;;;5079979;28;20643;-62
2022/12/14 05:53:42;;;;;;;19.48;12.13;;;-0.60;99.90;;;;;;5079727;28;20319;-61
2022/12/14 05:56:11;;;;;;;19.23;11.82;;;-0.60;99.90;;;;;;5070801;28;20655;-62
2022/12/14 05:58:39;;;;;;;12.88;9.88;;;-0.70;99.90;;;;;;5061643;28;20314;-61
2022/12/14 06:01:09;;;;;;;13.13;9.23;;;-0.70;99.90;;;;;;5070165;28;20622;-61
2022/12/14 06:03:38;;;;;;;12.00;9.30;;;-0.70;99.90;;;;;;5067153;28;20261;-61
2022/12/14 06:06:08;;;;;;;18.75;11.27;;;-0.70;99.90;;;;;;5075669;28;20717;-62
2022/12/14 06:08:38;;;;;;;15.90;10.60;;;-0.70;99.90;;;;;;5060151;28;20283;-62
2022/12/14 06:11:10;;;;;;;16.35;10.25;;;-0.70;99.90;;;;;;5061007;28;20256;-62
2022/12/14 06:13:39;;;;;;;13.40;9.90;;;-0.80;99.90;;;;;;5064260;28;20249;-62
2022/12/14 06:16:09;;;;;;;14.25;10.45;;;-0.70;99.90;;;;;;5067818;28;20271;-61
2022/12/14 06:18:40;;;;;;;16.48;9.43;;;-0.70;99.90;;;;;;5063981;28;20284;-62
2022/12/14 06:21:09;;;;;;;18.70;10.50;;;-0.70;99.90;;;;;;5067303;28;20625;-61
2022/12/14 06:23:37;;;;;;;15.27;9.90;;;-0.70;99.90;;;;;;5075669;28;20306;-62
2022/12/14 06:26:07;;;;;;;15.05;9.93;;;-0.70;99.90;;;;;;5069824;28;20307;-62
2022/12/14 06:28:35;;;;;;;14.95;10.27;;;-0.70;99.90;;;;;;5061618;28;20291;-62
2022/12/14 06:31:04;;;;;;;13.50;10.10;;;-0.70;99.90;;;;;;5069708;28;20256;-63
2022/12/14 06:33:33;;;;;;;15.63;11.10;;;-0.60;99.90;;;;;;5058983;28;20260;-64
2022/12/14 06:36:02;;;;;;;21.55;11.02;;;-0.60;99.90;;;;;;5078012;28;20279;-63
2022/12/14 06:38:31;;;;;;;18.42;10.85;;;-0.60;99.90;;;;;;5072492;28;20286;-63
2022/12/14 06:40:59;;;;;;;17.67;13.25;;;-0.60;99.90;;;;;;5052886;28;20757;-63
2022/12/14 06:43:28;;;;;;;18.90;11.88;;;-0.60;99.90;;;;;;5052268;28;20204;-63
2022/12/14 06:45:56;;;;;;;24.73;11.57;;;-0.60;99.90;;;;;;5050512;28;20683;-63
2022/12/14 06:48:24;;;;;;;18.05;11.65;;;-0.50;99.90;;;;;;5051729;28;20205;-63
2022/12/14 06:50:52;;;;;;;18.13;11.15;;;-0.60;99.90;;;;;;5051363;28;20193;-63
2022/12/14 06:53:20;;;;;;;19.10;11.77;;;-0.60;99.90;;;;;;5051717;28;20583;-62
2022/12/14 06:55:47;;;;;;;17.05;12.05;;;-0.50;99.90;;;;;;5050632;28;20646;-63
2022/12/14 06:58:15;;;;;;;21.30;11.55;;;-0.60;99.90;;;;;;5051699;28;20208;-62
2022/12/14 07:00:44;;;;;;;17.63;11.52;;;-0.60;99.90;;;;;;5017682;28;20219;-62
2022/12/14 07:03:12;;;;;;;18.58;12.43;;;-0.60;99.90;;;;;;5012295;28;20214;-63
2022/12/14 07:05:40;;;;;;;13.93;9.80;;;-0.60;99.90;;;;;;5011973;28;20272;-62
2022/12/14 07:08:08;;;;;;;16.30;11.93;;;-0.70;99.90;;;;;;5012511;28;20573;-62
2022/12/14 07:10:36;;;;;;;17.33;11.20;;;-0.70;99.90;;;;;;5012084;28;20224;-64
2022/12/14 07:13:04;;;;;;;20.58;12.18;;;-0.70;99.90;;;;;;5011912;28;20583;-64
2022/12/14 07:15:32;;;;;;;17.15;12.15;;;-0.70;99.90;;;;;;5014250;28;20218;-64
2022/12/14 07:18:01;;;;;;;18.80;12.55;;;-0.70;99.90;;;;;;5016132;28;20212;-64
2022/12/14 07:20:29;;;;;;;19.98;11.98;;;-0.80;99.90;;;;;;5015834;28;20206;-64
2022/12/14 07:22:57;;;;;;;18.40;11.70;;;-0.80;99.90;;;;;;5014574;28;20248;-63
2022/12/14 07:25:25;;;;;;;20.60;13.57;;;-0.80;99.90;;;;;;5015688;28;20248;-63
2022/12/14 07:27:53;;;;;;;17.90;12.32;;;-0.70;99.90;;;;;;5015391;28;20202;-64
2022/12/14 07:30:21;;;;;;;18.45;12.00;;;-0.70;99.90;;;;;;5020808;28;20223;-63
2022/12/14 07:32:48;;;;;;;22.70;14.20;;;-0.70;99.90;;;;;;5034803;28;20733;-64
2022/12/14 07:35:18;;;;;;;18.05;12.38;;;-0.70;99.90;;;;;;5035012;28;20197;-63
2022/12/14 07:37:49;;;;;;;16.80;12.52;;;-0.60;99.90;;;;;;5035139;28;20574;-63
2022/12/14 07:40:17;;;;;;;22.63;13.35;;;-0.60;99.90;;;;;;5024589;28;20202;-63
2022/12/14 07:42:48;;;;;;;20.50;13.57;;;-0.60;99.90;;;;;;5015276;28;20520;-62
2022/12/14 07:45:16;;;;;;;18.85;13.15;;;-0.70;99.90;;;;;;5014773;28;20210;-63
2022/12/14 07:47:44;;;;;;;19.98;14.02;;;-0.60;99.90;;;;;;5015379;28;20220;-63
2022/12/14 07:50:11;;;;;;;24.67;16.17;;;-0.70;99.90;;;;;;5014553;28;20214;-62
2022/12/14 07:52:41;;;;;;;30.48;17.67;;;-0.70;99.90;;;;;;5013805;28;20590;-62
2022/12/14 07:55:09;;;;;;;40.40;21.27;;;-0.70;99.90;;;;;;5014202;28;20686;-62
2022/12/14 07:57:37;;;;;;;26.08;16.77;;;-0.70;99.90;;;;;;5015291;28;20210;-63
2022/12/14 08:00:06;;;;;;;25.50;14.88;;;-0.70;99.90;;;;;;5043260;28;20234;-61
2022/12/14 08:02:39;;;;;;;22.33;15.02;;;-0.80;99.90;;;;;;5053893;28;20200;-62
2022/12/14 08:05:08;;;;;;;30.17;15.95;;;-0.90;99.90;;;;;;5052040;28;20749;-62
2022/12/14 08:07:36;;;;;;;32.83;17.50;;;-0.90;99.90;;;;;;5054711;28;20238;-61
2022/12/14 08:10:06;;;;;;;29.02;15.80;;;-0.90;99.90;;;;;;5054121;28;20209;-62
2022/12/14 08:12:34;;;;;;;26.00;15.32;;;-0.90;99.90;;;;;;5054370;28;20185;-63
2022/12/14 08:15:02;;;;;;;22.73;16.80;;;-1.00;99.90;;;;;;5054092;28;20209;-63
2022/12/14 08:17:31;;;;;;;23.73;15.35;;;-1.00;99.90;;;;;;5054500;28;20204;-63
2022/12/14 08:19:59;;;;;;;26.80;16.27;;;-1.00;99.90;;;;;;5053614;28;20572;-63
2022/12/14 08:22:27;;;;;;;26.55;16.80;;;-1.10;99.90;;;;;;5070995;28;20234;-63
2022/12/14 08:24:55;;;;;;;27.00;16.92;;;-1.10;99.90;;;;;;5073375;28;20211;-63
2022/12/14 08:27:25;;;;;;;25.95;16.50;;;-1.10;99.90;;;;;;5060603;28;20211;-64
2022/12/14 08:29:52;;;;;;;27.50;17.85;;;-1.10;99.90;;;;;;5066291;28;20214;-63
2022/12/14 08:32:20;;;;;;;31.20;19.48;;;-1.10;99.90;;;;;;5074854;28;20200;-63
2022/12/14 08:34:48;;;;;;;24.10;16.92;;;-1.10;99.90;;;;;;5073936;28;20266;-63
2022/12/14 08:37:16;;;;;;;34.10;20.48;;;-1.10;99.90;;;;;;5074495;28;20208;-63
2022/12/14 08:39:44;;;;;;;38.30;19.75;;;-1.20;99.90;;;;;;5073656;28;20214;-63
2022/12/14 08:42:12;;;;;;;30.80;17.95;;;-1.20;99.90;;;;;;5060098;28;20679;-62
2022/12/14 08:44:41;;;;;;;33.03;18.58;;;-1.20;99.90;;;;;;5054541;28;20205;-62
2022/12/14 08:47:09;;;;;;;35.13;20.10;;;-1.10;99.90;;;;;;5053438;28;20230;-61
2022/12/14 08:49:37;;;;;;;31.35;19.38;;;-1.00;99.90;;;;;;5054133;28;20200;-62
2022/12/14 08:52:05;;;;;;;33.28;19.33;;;-1.00;99.90;;;;;;5053573;28;20207;-61
2022/12/14 08:54:34;;;;;;;31.60;18.27;;;-1.00;99.90;;;;;;5057017;28;20212;-61
2022/12/14 08:57:03;;;;;;;28.08;18.27;;;-1.10;99.90;;;;;;5053720;28;20215;-62
2022/12/14 08:59:31;;;;;;;30.88;19.15;;;-1.10;99.90;;;;;;5053519;28;20487;-62
2022/12/14 09:02:01;;;;;;;35.90;19.25;;;-1.10;99.90;;;;;;5053242;28;20542;-62
2022/12/14 09:04:29;;;;;;;33.75;19.38;;;-1.10;99.90;;;;;;5052306;28;20205;-62
2022/12/14 09:06:57;;;;;;;29.67;19.23;;;-1.10;99.90;;;;;;5053193;28;20227;-63
2022/12/14 09:09:25;;;;;;;33.40;20.55;;;-1.10;99.90;;;;;;5051856;28;20208;-62
2022/12/14 09:11:52;;;;;;;31.33;19.70;;;-1.10;99.90;;;;;;5063091;28;20257;-62
2022/12/14 09:14:21;;;;;;;32.33;20.88;;;-1.10;99.90;;;;;;5057587;28;20204;-63
2022/12/14 09:16:49;;;;;;;37.20;19.25;;;-1.10;99.90;;;;;;5054851;28;20204;-63
2022/12/14 09:19:18;;;;;;;33.90;19.05;;;-1.10;99.90;;;;;;5052764;28;20208;-62
2022/12/14 09:21:46;;;;;;;33.80;20.83;;;-1.10;99.90;;;;;;5052667;28;20200;-62
2022/12/14 09:24:14;;;;;;;33.08;20.70;;;-1.00;99.90;;;;;;5052634;28;20207;-63
2022/12/14 09:26:42;;;;;;;39.42;21.63;;;-1.00;99.90;;;;;;5053732;28;20222;-62
2022/12/14 09:29:14;;;;;;;31.08;21.13;;;-1.10;99.90;;;;;;5053689;28;20201;-63
2022/12/14 09:31:43;;;;;;;31.88;20.20;;;-1.00;99.90;;;;;;5053678;28;20189;-63
2022/12/14 09:34:11;;;;;;;34.63;22.27;;;-1.10;99.90;;;;;;5053023;28;20735;-63
2022/12/14 09:36:40;;;;;;;40.72;22.60;;;-1.00;99.90;;;;;;5052994;28;20200;-63
2022/12/14 09:39:13;;;;;;;36.03;21.10;;;-1.00;99.90;;;;;;5053022;28;20571;-62
2022/12/14 09:41:52;;;;;;;42.13;21.30;;;-1.00;99.90;;;;;;5066210;28;20673;-62
2022/12/14 09:44:31;;;;;;;35.30;20.80;;;-1.00;99.90;;;;;;5072581;28;20192;-63
2022/12/14 09:47:02;;;;;;;36.58;21.52;;;-1.00;99.90;;;;;;5074362;28;20682;-63
2022/12/14 09:49:33;;;;;;;33.40;19.55;;;-1.00;99.90;;;;;;5074275;28;20192;-66
2022/12/14 09:52:05;;;;;;;32.28;20.40;;;-1.10;99.90;;;;;;5073604;28;20720;-62
2022/12/14 09:54:36;;;;;;;36.40;22.30;;;-1.00;99.90;;;;;;5073442;28;20554;-64
2022/12/14 09:57:11;;;;;;;37.08;23.17;;;-1.00;99.90;;;;;;5074079;28;20281;-63
2022/12/14 09:59:38;;;;;;;34.40;20.20;;;-0.90;99.90;;;;;;5072748;28;20238;-63
2022/12/14 10:02:25;;;;;;;35.38;21.67;;;-1.00;99.90;;;;;;5072960;28;20561;-63
2022/12/14 10:05:14;;;;;;;31.52;17.88;;;-1.00;99.90;;;;;;5075311;28;20192;-63
2022/12/14 10:07:50;;;;;;;25.52;17.88;;;-1.00;99.90;;;;;;5074095;28;20708;-63
2022/12/14 10:10:25;;;;;;;29.85;16.63;;;-1.00;99.90;;;;;;5072843;28;20191;-63
2022/12/14 10:13:03;;;;;;;30.20;16.00;;;-1.10;99.90;;;;;;5073083;28;20188;-63
2022/12/14 10:15:38;;;;;;;29.10;16.73;;;-1.10;99.90;;;;;;5072982;28;20196;-63
2022/12/14 10:18:30;;;;;;;28.23;18.40;;;-1.20;99.90;;;;;;5073336;28;20188;-63
2022/12/14 10:21:03;;;;;;;27.23;16.70;;;-1.10;99.90;;;;;;5073637;28;20320;-63
2022/12/14 10:23:34;;;;;;;27.88;17.83;;;-1.00;99.90;;;;;;5073240;28;20667;-65
2022/12/14 10:26:07;;;;;;;25.92;15.98;;;-0.90;99.90;;;;;;5072429;28;20208;-64
2022/12/14 10:28:44;;;;;;;31.60;18.02;;;-1.00;99.90;;;;;;5072273;28;20202;-64
2022/12/14 10:31:15;;;;;;;29.67;17.92;;;-0.90;99.90;;;;;;5073822;28;20532;-64
2022/12/14 10:33:45;;;;;;;36.65;21.08;;;-0.90;99.90;;;;;;5071590;28;20188;-63
2022/12/14 10:36:21;;;;;;;37.95;18.98;;;-0.80;99.90;;;;;;5072113;28;20260;-63
2022/12/14 10:38:58;;;;;;;35.75;21.58;;;-0.70;99.90;;;;;;5072011;28;20192;-61
2022/12/14 10:41:36;;;;;;;32.22;17.15;;;-0.80;99.90;;;;;;5072125;28;20196;-62
2022/12/14 10:44:15;;;;;;;27.27;18.42;;;-0.70;99.90;;;;;;5072302;28;20199;-63
2022/12/14 10:46:49;;;;;;;30.67;19.45;;;-0.80;99.90;;;;;;5071985;28;20926;-63
2022/12/14 10:49:22;;;;;;;30.23;18.15;;;-0.80;99.90;;;;;;5060142;28;20200;-63
2022/12/14 10:51:53;;;;;;;28.40;17.67;;;-0.90;99.90;;;;;;5067302;28;20204;-62
2022/12/14 10:54:30;;;;;;;28.52;17.25;;;-1.00;99.90;;;;;;5076541;28;20654;-63
2022/12/14 10:56:58;;;;;;;33.40;20.48;;;-1.00;99.90;;;;;;5063190;28;20561;-62
2022/12/14 10:59:33;;;;;;;31.08;19.55;;;-1.00;99.90;;;;;;5056378;28;20240;-62
2022/12/14 11:02:07;;;;;;;29.10;19.10;;;-0.90;99.90;;;;;;5055133;28;20194;-62
2022/12/14 11:04:38;;;;;;;32.47;20.30;;;-0.90;99.90;;;;;;5055824;28;20191;-62
2022/12/14 11:07:09;;;;;;;32.55;18.40;;;-0.90;99.90;;;;;;5055856;28;20611;-62
2022/12/14 11:09:39;;;;;;;31.25;19.63;;;-0.80;99.90;;;;;;5054938;28;20277;-63
2022/12/14 11:12:17;;;;;;;35.35;20.02;;;-0.80;99.90;;;;;;5053550;28;20644;-62
2022/12/14 11:14:58;;;;;;;36.35;20.27;;;-0.90;99.90;;;;;;5058195;28;20212;-63
2022/12/14 11:17:37;;;;;;;33.83;19.25;;;-0.90;99.90;;;;;;5052370;28;20538;-63
2022/12/14 11:20:18;;;;;;;31.77;19.45;;;-0.70;99.90;;;;;;5052576;28;20196;-63
2022/12/14 11:22:48;;;;;;;34.33;20.90;;;-0.80;99.90;;;;;;5051984;28;20220;-62
2022/12/14 11:25:34;;;;;;;33.10;19.42;;;-0.90;99.90;;;;;;5061146;28;20201;-63
2022/12/14 11:28:14;;;;;;;34.72;21.10;;;-1.00;99.90;;;;;;5064324;28;20219;-63
2022/12/14 11:30:53;;;;;;;32.33;19.30;;;-1.00;99.90;;;;;;5062952;28;20204;-63
2022/12/14 11:33:21;;;;;;;31.70;19.85;;;-1.00;99.90;;;;;;5062951;28;20195;-63
2022/12/14 11:35:51;;;;;;;32.53;19.58;;;-1.00;99.90;;;;;;5064093;28;20227;-63
2022/12/14 11:38:19;;;;;;;36.85;20.83;;;-1.00;99.90;;;;;;5064498;28;20575;-63
2022/12/14 11:40:49;;;;;;;34.58;21.13;;;-0.90;99.90;;;;;;5063964;28;20434;-63
2022/12/14 11:43:26;;;;;;;33.63;21.98;;;-0.80;99.90;;;;;;5062015;28;20282;-63
2022/12/14 11:45:55;;;;;;;33.58;20.55;;;-0.60;99.90;;;;;;5053431;28;20203;-64
2022/12/14 11:48:26;;;;;;;34.67;20.30;;;-0.50;99.90;;;;;;5054924;28;20580;-63
2022/12/14 11:51:04;;;;;;;37.83;20.90;;;-0.50;99.90;;;;;;5054832;28;20563;-63
2022/12/14 11:53:32;;;;;;;36.20;21.65;;;-0.50;99.90;;;;;;5053634;28;20184;-63
2022/12/14 11:56:06;;;;;;;38.53;21.50;;;-0.40;99.90;;;;;;5052269;28;20208;-63
2022/12/14 11:58:37;;;;;;;34.92;21.10;;;-0.30;99.90;;;;;;5053650;28;20203;-63
2022/12/14 12:01:11;;;;;;;35.60;20.67;;;-0.30;99.90;;;;;;5053332;28;20631;-63
2022/12/14 12:03:44;;;;;;;33.55;19.33;;;-0.30;99.90;;;;;;5053656;28;20188;-62
2022/12/14 12:06:15;;;;;;;36.42;20.67;;;-0.20;99.90;;;;;;5054851;28;20632;-62
2022/12/14 12:08:44;;;;;;;36.90;22.13;;;-0.20;99.90;;;;;;5058093;28;20237;-63
2022/12/14 12:11:19;;;;;;;31.67;20.83;;;-0.10;99.90;;;;;;5060903;28;20204;-62
2022/12/14 12:13:52;;;;;;;32.45;20.70;;;-0.10;99.90;;;;;;5058654;28;20631;-63
2022/12/14 12:16:22;;;;;;;35.13;22.05;;;-0.10;99.90;;;;;;5057366;28;20189;-62
2022/12/14 12:18:55;;;;;;;37.42;20.65;;;-0.10;99.90;;;;;;5065098;28;20573;-62
2022/12/14 12:21:27;;;;;;;29.60;19.52;;;-0.20;99.90;;;;;;5065324;28;20197;-63
2022/12/14 12:24:01;;;;;;;34.80;22.02;;;-0.20;99.90;;;;;;5060098;28;20192;-63
2022/12/14 12:26:34;;;;;;;35.20;20.13;;;-0.30;99.90;;;;;;5058000;28;20615;-63
2022/12/14 12:29:11;;;;;;;36.88;21.38;;;-0.30;99.90;;;;;;5057056;28;20213;-63
2022/12/14 12:31:45;;;;;;;35.05;20.48;;;-0.10;99.90;;;;;;5063126;28;20196;-63
2022/12/14 12:34:19;;;;;;;34.40;21.23;;;-0.20;99.90;;;;;;5064856;28;20188;-63
2022/12/14 12:36:48;;;;;;;33.75;21.55;;;-0.20;99.90;;;;;;5058949;28;20187;-63
2022/12/14 12:39:19;;;;;;;41.38;22.50;;;-0.10;99.90;;;;;;5057410;28;20725;-63
2022/12/14 12:42:05;;;;;;;31.95;20.25;;;-0.20;99.90;;;;;;5058445;28;20324;-62
2022/12/14 12:44:43;;;;;;;36.35;20.77;;;-0.20;99.90;;;;;;5055838;28;20197;-63
2022/12/14 12:47:22;;;;;;;32.45;20.15;;;-0.20;99.90;;;;;;5061841;28;20215;-63
2022/12/14 12:49:50;;;;;;;35.75;20.73;;;-0.10;99.90;;;;;;5060335;28;20527;-64
2022/12/14 12:52:24;;;;;;;32.70;20.92;;;-0.10;99.90;;;;;;5060186;28;20205;-63
2022/12/14 12:55:00;;;;;;;36.53;20.98;;;-0.10;99.90;;;;;;5067561;28;20204;-64
2022/12/14 12:57:41;;;;;;;34.58;19.98;;;-0.10;99.90;;;;;;5054175;28;20199;-64
2022/12/14 13:00:17;;;;;;;32.40;20.17;;;0.00;99.90;;;;;;5057027;28;20235;-65
2022/12/14 13:02:49;;;;;;;39.28;20.67;;;0.00;99.90;;;;;;5059365;28;20202;-64
2022/12/14 13:05:22;;;;;;;27.25;18.10;;;0.00;99.90;;;;;;5059843;28;20239;-64
2022/12/14 13:07:52;;;;;;;32.25;21.50;;;-0.10;99.90;;;;;;5059874;28;20204;-62